Hopewell, Canada
Current Conditions -  °F | °C
As of 7:00 AM on Thursday 23 Oct 2014 (Local Time) from CYHZ Reporting Station
Overcast Overcast  
Wind Chill: 52°   Ceiling: 800
Heat Index: 52°   Visibility: 15mi
Dew Point: 50°   Wind: 17mph
Humidity: 94%   Direction: 80°E
Pressure: 30.08"   Gusts: 24mph
Location:  45.47°N, 62.7°W
Report Text: CYHZ 231000Z 08015G21KT 15SM BKN008 OVC015 11/10 A3008 RMK SF6SC2 SLP188
Loading
Personal Weather Stations






























Interactive Weather Map
Tropical Storm Tracking
New forecast layout! Learn more

10-Day Weather Forecast

Advertisements
Track Severe Weather on mobile